sensor_id;sensor_type;location;lat;lon;timestamp;P1;durP1;ratioP1;P2;durP2;ratioP2
72929;SDS011;61073;54.260;20.816;2023-10-09T00:15:41;2.50;;;1.30;;
72929;SDS011;61073;54.260;20.816;2023-10-09T00:18:09;3.17;;;1.40;;
72929;SDS011;61073;54.260;20.816;2023-10-09T00:20:38;3.17;;;1.17;;
72929;SDS011;61073;54.260;20.816;2023-10-09T00:48:22;6.10;;;1.15;;
72929;SDS011;61073;54.260;20.816;2023-10-09T00:53:28;2.88;;;1.55;;
72929;SDS011;61073;54.260;20.816;2023-10-09T00:55:59;3.97;;;2.20;;
72929;SDS011;61073;54.260;20.816;2023-10-09T00:58:47;4.68;;;2.10;;
72929;SDS011;61073;54.260;20.816;2023-10-09T01:01:17;7.43;;;2.50;;
72929;SDS011;61073;54.260;20.816;2023-10-09T01:03:46;4.65;;;2.30;;
72929;SDS011;61073;54.260;20.816;2023-10-09T01:06:17;4.88;;;2.30;;
72929;SDS011;61073;54.260;20.816;2023-10-09T01:08:47;5.88;;;2.60;;
72929;SDS011;61073;54.260;20.816;2023-10-09T01:11:32;6.28;;;2.45;;
72929;SDS011;61073;54.260;20.816;2023-10-09T01:14:00;3.90;;;2.20;;
72929;SDS011;61073;54.260;20.816;2023-10-09T01:16:33;5.57;;;2.42;;
72929;SDS011;61073;54.260;20.816;2023-10-09T01:19:00;5.18;;;2.63;;
72929;SDS011;61073;54.260;20.816;2023-10-09T01:21:32;4.20;;;2.63;;
72929;SDS011;61073;54.260;20.816;2023-10-09T01:24:00;5.38;;;2.58;;
72929;SDS011;61073;54.260;20.816;2023-10-09T01:26:34;5.53;;;2.80;;
72929;SDS011;61073;54.260;20.816;2023-10-09T01:29:19;6.05;;;2.90;;
72929;SDS011;61073;54.260;20.816;2023-10-09T01:34:23;4.75;;;2.10;;
72929;SDS011;61073;54.260;20.816;2023-10-09T01:36:51;5.00;;;1.95;;
72929;SDS011;61073;54.260;20.816;2023-10-09T01:39:22;6.82;;;2.58;;
72929;SDS011;61073;54.260;20.816;2023-10-09T01:41:50;3.90;;;2.20;;
72929;SDS011;61073;54.260;20.816;2023-10-09T01:44:37;5.00;;;2.20;;
72929;SDS011;61073;54.260;20.816;2023-10-09T01:47:09;4.97;;;2.37;;
72929;SDS011;61073;54.260;20.816;2023-10-09T01:49:40;4.25;;;2.00;;
72929;SDS011;61073;54.260;20.816;2023-10-09T01:52:09;5.63;;;2.15;;
72929;SDS011;61073;54.260;20.816;2023-10-09T01:54:42;3.28;;;2.00;;
72929;SDS011;61073;54.260;20.816;2023-10-09T01:57:16;3.70;;;2.08;;
72929;SDS011;61073;54.260;20.816;2023-10-09T01:59:48;3.40;;;2.17;;
72929;SDS011;61073;54.260;20.816;2023-10-09T02:02:16;5.20;;;2.60;;
72929;SDS011;61073;54.260;20.816;2023-10-09T02:05:02;4.65;;;2.33;;
72929;SDS011;61073;54.260;20.816;2023-10-09T02:07:45;5.20;;;2.03;;
72929;SDS011;61073;54.260;20.816;2023-10-09T02:10:22;4.10;;;1.92;;
72929;SDS011;61073;54.260;20.816;2023-10-09T02:12:49;4.47;;;2.13;;
72929;SDS011;61073;54.260;20.816;2023-10-09T02:15:25;4.53;;;2.03;;
72929;SDS011;61073;54.260;20.816;2023-10-09T02:18:08;5.03;;;2.10;;
72929;SDS011;61073;54.260;20.816;2023-10-09T02:23:27;3.42;;;2.10;;
72929;SDS011;61073;54.260;20.816;2023-10-09T02:26:10;5.93;;;1.90;;
72929;SDS011;61073;54.260;20.816;2023-10-09T02:28:54;4.50;;;2.05;;
72929;SDS011;61073;54.260;20.816;2023-10-09T02:31:31;3.70;;;2.13;;
72929;SDS011;61073;54.260;20.816;2023-10-09T02:34:02;3.10;;;1.80;;
72929;SDS011;61073;54.260;20.816;2023-10-09T02:36:32;3.45;;;1.73;;
72929;SDS011;61073;54.260;20.816;2023-10-09T04:53:58;5.13;;;1.45;;
72929;SDS011;61073;54.260;20.816;2023-10-09T05:09:51;6.82;;;1.60;;
